createdAt,value
2018-07-12T00:01:50.523Z,17.21
2018-07-12T00:04:18.453Z,17.33
2018-07-12T00:06:46.147Z,17.31
2018-07-12T00:09:13.851Z,17.26
2018-07-12T00:11:41.574Z,17.23
2018-07-12T00:14:09.254Z,17.19
2018-07-12T00:16:36.946Z,17.22
2018-07-12T00:19:04.629Z,17.20
2018-07-12T00:21:32.321Z,17.19
2018-07-12T00:23:59.999Z,17.14
2018-07-12T00:26:27.697Z,17.11
2018-07-12T00:28:55.383Z,17.14
2018-07-12T00:31:23.079Z,17.18
2018-07-12T00:33:50.868Z,17.27
2018-07-12T00:36:18.502Z,17.32
2018-07-12T00:38:46.214Z,17.32
2018-07-12T00:41:13.902Z,17.28
2018-07-12T00:43:41.575Z,17.32
2018-07-12T00:46:09.256Z,17.29
2018-07-12T00:48:36.963Z,17.29
2018-07-12T00:51:04.678Z,17.32
2018-07-12T00:53:32.386Z,17.39
2018-07-12T00:56:00.066Z,17.38
2018-07-12T00:58:27.747Z,17.38
2018-07-12T01:00:55.423Z,17.41
2018-07-12T01:03:23.144Z,17.42
2018-07-12T01:05:50.833Z,17.35
2018-07-12T01:08:18.570Z,17.30
2018-07-12T01:10:46.232Z,17.31
2018-07-12T01:13:13.926Z,17.34
2018-07-12T01:15:41.606Z,17.35
2018-07-12T01:18:09.308Z,17.38
2018-07-12T01:20:36.989Z,17.34
2018-07-12T01:23:04.708Z,17.34
2018-07-12T01:25:32.414Z,17.35
2018-07-12T01:28:00.150Z,17.41
2018-07-12T01:30:27.825Z,17.39
2018-07-12T01:32:55.778Z,17.38
2018-07-12T01:35:23.451Z,17.44
2018-07-12T01:37:51.139Z,17.44
2018-07-12T01:40:18.857Z,17.48
2018-07-12T01:42:46.535Z,17.50
2018-07-12T01:45:14.287Z,17.49
2018-07-12T01:47:41.975Z,17.52
2018-07-12T01:50:09.675Z,17.56
2018-07-12T01:52:37.376Z,17.56
2018-07-12T01:55:05.052Z,17.56
2018-07-12T01:57:32.718Z,17.57
2018-07-12T02:00:00.435Z,17.57
2018-07-12T02:02:28.136Z,17.58
2018-07-12T02:04:56.096Z,17.53
2018-07-12T02:07:23.791Z,17.51
2018-07-12T02:09:51.476Z,17.64
2018-07-12T02:12:19.163Z,17.57
2018-07-12T02:14:46.860Z,17.60
2018-07-12T02:17:14.550Z,17.51
2018-07-12T02:19:42.313Z,17.40
2018-07-12T02:22:09.982Z,17.44
2018-07-12T02:24:37.686Z,17.44
2018-07-12T02:27:05.391Z,17.38
2018-07-12T02:29:33.083Z,17.35
2018-07-12T02:32:00.774Z,17.37
2018-07-12T02:34:28.482Z,17.29
2018-07-12T02:36:56.170Z,17.29
2018-07-12T02:39:23.868Z,17.24
2018-07-12T02:41:51.558Z,17.13
2018-07-12T02:44:19.266Z,17.17
2018-07-12T02:46:46.983Z,17.26
2018-07-12T02:49:14.765Z,17.20
2018-07-12T02:51:42.490Z,17.23
2018-07-12T02:54:10.159Z,17.20
2018-07-12T02:56:37.891Z,17.12
2018-07-12T02:59:05.573Z,17.09
2018-07-12T03:01:33.279Z,17.13
2018-07-12T03:04:00.966Z,17.10
2018-07-12T03:06:28.672Z,17.10
2018-07-12T03:08:56.365Z,17.09
2018-07-12T03:11:24.071Z,17.09
2018-07-12T03:13:52.015Z,16.99
2018-07-12T03:16:19.713Z,16.96
2018-07-12T03:18:47.407Z,16.88
2018-07-12T03:21:15.125Z,16.85
2018-07-12T03:23:42.805Z,16.83
2018-07-12T03:26:10.754Z,16.80
2018-07-12T03:28:38.438Z,16.79
2018-07-12T03:31:06.143Z,16.72
2018-07-12T03:33:33.828Z,16.72
2018-07-12T03:36:01.515Z,16.75
2018-07-12T03:38:29.206Z,16.73
2018-07-12T03:40:56.916Z,16.76
2018-07-12T03:43:24.617Z,16.68
2018-07-12T03:45:52.356Z,16.61
2018-07-12T03:48:20.047Z,16.53
2018-07-12T03:50:47.745Z,16.46
2018-07-12T03:53:15.478Z,16.48
2018-07-12T03:55:43.203Z,16.39
2018-07-12T03:58:10.969Z,16.37
2018-07-12T04:00:38.630Z,16.43
2018-07-12T04:03:06.327Z,16.49
2018-07-12T04:05:34.000Z,16.53
2018-07-12T04:08:01.695Z,16.55
2018-07-12T04:10:29.375Z,16.57
2018-07-12T04:12:57.087Z,16.58
2018-07-12T04:15:24.775Z,16.54
2018-07-12T04:17:52.476Z,16.53
2018-07-12T04:20:20.162Z,16.53
2018-07-12T04:22:47.868Z,16.53
2018-07-12T04:25:15.547Z,16.58
2018-07-12T04:27:43.239Z,16.70
2018-07-12T04:30:10.955Z,16.83
2018-07-12T04:32:38.667Z,17.02
2018-07-12T04:35:06.365Z,17.07
2018-07-12T04:37:34.063Z,17.11
2018-07-12T04:40:01.743Z,17.03
2018-07-12T04:42:29.450Z,16.93
2018-07-12T04:44:57.128Z,16.71
2018-07-12T04:47:24.834Z,16.68
2018-07-12T04:49:52.494Z,16.73
2018-07-12T04:52:20.195Z,16.70
2018-07-12T04:54:47.872Z,16.70
2018-07-12T04:57:15.557Z,16.71
2018-07-12T04:59:43.270Z,16.73
2018-07-12T05:02:10.963Z,16.72
2018-07-12T05:04:38.685Z,16.79
2018-07-12T05:07:06.411Z,16.82
2018-07-12T05:09:34.105Z,16.86
2018-07-12T05:12:01.781Z,16.85
2018-07-12T05:14:29.502Z,16.85
2018-07-12T05:16:57.174Z,16.95
2018-07-12T05:19:24.872Z,17.15
2018-07-12T05:21:52.586Z,17.32
2018-07-12T05:24:20.242Z,17.43
2018-07-12T05:26:47.944Z,17.57
2018-07-12T05:29:15.643Z,17.79
2018-07-12T05:31:43.358Z,17.86
2018-07-12T05:34:11.089Z,17.91
2018-07-12T05:36:54.566Z,17.95
2018-07-12T05:39:23.616Z,17.74
2018-07-12T05:41:53.511Z,17.57
2018-07-12T05:44:22.827Z,17.31
2018-07-12T05:46:52.079Z,17.36
2018-07-12T05:49:21.352Z,17.28
2018-07-12T05:51:50.591Z,17.18
2018-07-12T05:54:20.591Z,17.11
2018-07-12T05:56:49.907Z,17.19
2018-07-12T05:59:19.257Z,17.11
2018-07-12T06:02:05.558Z,17.28
2018-07-12T06:04:34.839Z,17.31
2018-07-12T06:07:04.140Z,17.38
2018-07-12T06:09:33.394Z,17.40
2018-07-12T06:12:02.580Z,17.42
2018-07-12T06:14:31.796Z,17.46
2018-07-12T06:17:01.119Z,17.34
2018-07-12T06:19:30.414Z,17.23
2018-07-12T06:21:59.691Z,17.32
2018-07-12T06:24:28.976Z,17.30
2018-07-12T06:26:58.231Z,17.09
2018-07-12T06:29:27.474Z,17.22
2018-07-12T06:31:56.700Z,17.35
2018-07-12T06:34:25.952Z,17.46
2018-07-12T06:36:55.322Z,17.63
2018-07-12T06:39:24.635Z,17.71
2018-07-12T06:41:54.107Z,17.59
2018-07-12T06:44:23.397Z,17.69
2018-07-12T06:46:52.664Z,17.63
2018-07-12T06:49:21.670Z,17.67
2018-07-12T06:51:50.910Z,17.62
2018-07-12T06:54:20.186Z,17.46
2018-07-12T06:56:49.505Z,17.48
2018-07-12T06:59:18.792Z,17.39
2018-07-12T07:01:48.029Z,17.22
2018-07-12T07:04:17.258Z,17.13
2018-07-12T07:06:46.570Z,16.68
2018-07-12T07:09:16.364Z,16.49
2018-07-12T07:11:45.660Z,16.43
2018-07-12T07:14:14.930Z,16.50
2018-07-12T07:16:44.235Z,16.50
2018-07-12T07:19:13.517Z,16.03
2018-07-12T07:21:42.766Z,15.83
2018-07-12T07:24:12.095Z,15.89
2018-07-12T07:26:41.436Z,15.62
2018-07-12T07:29:10.650Z,15.89
2018-07-12T07:31:40.001Z,15.89
2018-07-12T07:34:09.211Z,15.72
2018-07-12T07:36:38.498Z,15.84
2018-07-12T07:39:09.038Z,16.05
2018-07-12T07:41:38.295Z,16.19
2018-07-12T07:44:07.616Z,16.30
2018-07-12T07:46:36.920Z,16.30
2018-07-12T07:49:06.263Z,16.42
2018-07-12T07:51:35.496Z,16.68
2018-07-12T07:54:04.826Z,17.01
2018-07-12T07:56:34.169Z,17.37
2018-07-12T07:59:03.454Z,17.45
2018-07-12T08:01:32.979Z,17.37
2018-07-12T08:04:02.301Z,17.38
2018-07-12T08:06:31.555Z,17.58
2018-07-12T08:09:00.805Z,18.41
2018-07-12T08:11:30.115Z,18.75
2018-07-12T08:13:59.371Z,19.21
2018-07-12T08:16:28.636Z,20.07
2018-07-12T08:18:57.870Z,19.37
2018-07-12T08:21:27.183Z,19.12
2018-07-12T08:23:56.405Z,19.31
2018-07-12T08:26:25.423Z,19.59
2018-07-12T08:28:54.660Z,20.01
2018-07-12T08:31:23.894Z,19.76
2018-07-12T08:33:53.151Z,20.46
2018-07-12T08:36:22.495Z,20.38
2018-07-12T08:38:51.693Z,20.92
2018-07-12T08:41:20.981Z,21.16
2018-07-12T08:43:50.417Z,21.34
2018-07-12T08:46:19.867Z,20.60
2018-07-12T08:48:48.985Z,21.58
2018-07-12T08:51:18.256Z,21.17
2018-07-12T08:53:47.555Z,20.60
2018-07-12T08:56:16.777Z,20.91
2018-07-12T08:58:46.045Z,20.68
2018-07-12T09:01:15.249Z,20.61
2018-07-12T09:03:44.440Z,20.96
2018-07-12T09:06:13.689Z,20.87
2018-07-12T09:08:42.997Z,21.12
2018-07-12T09:11:12.183Z,20.86
2018-07-12T09:13:41.377Z,20.82
2018-07-12T09:16:10.581Z,20.81
2018-07-12T09:18:39.825Z,21.22
2018-07-12T09:21:09.130Z,22.69
2018-07-12T09:23:38.611Z,21.64
2018-07-12T09:26:07.611Z,21.45
2018-07-12T09:28:36.982Z,21.45
2018-07-12T09:31:06.267Z,21.12
2018-07-12T09:33:35.522Z,21.40
2018-07-12T09:36:04.736Z,21.05
2018-07-12T09:38:45.627Z,21.31
2018-07-12T09:41:14.939Z,22.43
2018-07-12T09:43:45.191Z,22.63
2018-07-12T09:46:14.694Z,23.49
2018-07-12T09:48:49.893Z,23.70
2018-07-12T09:51:19.169Z,23.41
2018-07-12T09:53:48.883Z,23.34
2018-07-12T09:56:18.303Z,24.73
2018-07-12T09:58:47.475Z,23.35
2018-07-12T10:01:22.036Z,22.60
2018-07-12T10:03:52.714Z,22.10
2018-07-12T10:06:25.978Z,23.07
2018-07-12T10:08:56.258Z,23.34
2018-07-12T10:11:30.636Z,23.30
2018-07-12T10:14:05.227Z,24.09
2018-07-12T10:16:39.603Z,23.89
2018-07-12T10:19:08.859Z,23.70
2018-07-12T10:21:37.846Z,23.29
2018-07-12T10:24:07.118Z,23.03
2018-07-12T10:26:36.331Z,22.58
2018-07-12T10:29:05.600Z,22.07
2018-07-12T10:31:34.816Z,22.15
2018-07-12T10:34:03.812Z,22.29
2018-07-12T10:36:32.802Z,21.92
2018-07-12T10:39:02.076Z,21.82
2018-07-12T10:41:31.391Z,21.71
2018-07-12T10:44:00.756Z,22.04
2018-07-12T10:46:30.030Z,22.91
2018-07-12T10:48:59.285Z,23.08
2018-07-12T10:51:28.575Z,23.39
2018-07-12T10:53:57.839Z,22.68
2018-07-12T10:56:27.118Z,22.32
2018-07-12T10:58:56.370Z,22.37
2018-07-12T11:01:25.584Z,22.33
2018-07-12T11:03:54.831Z,22.47
2018-07-12T11:06:24.067Z,22.45
2018-07-12T11:08:53.348Z,22.24
2018-07-12T11:11:22.591Z,22.42
2018-07-12T11:13:53.342Z,22.72
2018-07-12T11:16:22.342Z,22.40
2018-07-12T11:18:51.602Z,22.37
2018-07-12T11:21:20.903Z,22.54
2018-07-12T11:23:50.158Z,22.32
2018-07-12T11:26:19.503Z,22.42
2018-07-12T11:28:48.754Z,22.25
2018-07-12T11:31:18.025Z,22.39
2018-07-12T11:33:48.574Z,22.50
2018-07-12T11:36:18.003Z,22.19
2018-07-12T11:38:47.658Z,22.12
2018-07-12T11:41:16.679Z,22.36
2018-07-12T11:43:45.967Z,22.38
2018-07-12T11:46:16.091Z,22.64
2018-07-12T11:48:45.775Z,22.82
2018-07-12T11:51:15.103Z,23.13
2018-07-12T11:53:44.066Z,23.56
2018-07-12T11:56:13.373Z,23.39
2018-07-12T11:58:42.669Z,23.04
2018-07-12T12:01:12.000Z,23.98
2018-07-12T12:03:41.312Z,23.81
2018-07-12T12:06:10.589Z,23.86
2018-07-12T12:08:39.814Z,24.07
2018-07-12T12:11:09.137Z,23.77
2018-07-12T12:13:38.359Z,23.72
2018-07-12T12:16:07.666Z,23.23
2018-07-12T12:18:36.913Z,22.98
2018-07-12T12:21:06.139Z,23.11
2018-07-12T12:23:35.366Z,23.84
2018-07-12T12:26:04.713Z,24.31
2018-07-12T12:28:33.962Z,24.64
2018-07-12T12:31:03.350Z,24.03
2018-07-12T12:33:32.649Z,23.87
2018-07-12T12:36:01.978Z,23.98
2018-07-12T12:38:31.247Z,23.86
2018-07-12T12:41:00.550Z,23.30
2018-07-12T12:43:29.787Z,23.31
2018-07-12T12:45:59.043Z,22.80
2018-07-12T12:48:28.284Z,22.76
2018-07-12T12:50:57.647Z,23.30
2018-07-12T12:53:26.850Z,23.67
2018-07-12T12:55:56.145Z,24.17
2018-07-12T12:58:25.399Z,25.53
2018-07-12T13:00:54.676Z,25.86
2018-07-12T13:03:23.958Z,25.86
2018-07-12T13:05:53.278Z,25.15
2018-07-12T13:08:22.326Z,25.02
2018-07-12T13:10:51.605Z,25.68
2018-07-12T13:13:20.867Z,25.31
2018-07-12T13:15:50.190Z,24.75
2018-07-12T13:18:19.510Z,25.08
2018-07-12T13:20:48.808Z,24.89
2018-07-12T13:23:18.096Z,23.80
2018-07-12T13:25:47.516Z,24.20
2018-07-12T13:28:16.708Z,24.90
2018-07-12T13:30:46.063Z,25.04
2018-07-12T13:33:15.394Z,26.11
2018-07-12T13:35:44.709Z,26.44
2018-07-12T13:38:14.678Z,26.49
2018-07-12T13:40:43.976Z,25.63
2018-07-12T13:43:13.296Z,25.64
2018-07-12T13:45:42.547Z,25.05
2018-07-12T13:48:11.802Z,25.38
2018-07-12T13:50:41.046Z,25.10
2018-07-12T13:53:10.339Z,25.51
2018-07-12T13:55:39.734Z,25.79
2018-07-12T13:58:09.084Z,24.75
2018-07-12T14:00:38.221Z,25.39
2018-07-12T14:03:07.482Z,26.03
2018-07-12T14:05:37.151Z,26.37
2018-07-12T14:08:06.558Z,25.52
2018-07-12T14:10:35.630Z,25.82
2018-07-12T14:13:04.704Z,25.49
2018-07-12T14:15:34.128Z,26.43
2018-07-12T14:18:03.436Z,26.93
2018-07-12T14:20:32.694Z,26.85
2018-07-12T14:23:01.995Z,27.00
2018-07-12T14:25:31.240Z,26.77
2018-07-12T14:28:00.523Z,26.93
2018-07-12T14:30:29.666Z,27.07
2018-07-12T14:32:59.088Z,27.31
2018-07-12T14:35:28.316Z,26.65
2018-07-12T14:37:57.627Z,26.98
2018-07-12T14:40:26.834Z,26.74
2018-07-12T14:42:56.180Z,26.93
2018-07-12T14:45:25.439Z,27.14
2018-07-12T14:47:54.763Z,26.78
2018-07-12T14:50:24.067Z,26.16
2018-07-12T14:52:53.478Z,26.21
2018-07-12T14:55:22.697Z,25.89
2018-07-12T14:57:52.111Z,25.92
2018-07-12T15:00:21.365Z,25.92
2018-07-12T15:02:50.688Z,25.52
2018-07-12T15:05:19.633Z,24.98
2018-07-12T15:07:48.976Z,24.93
2018-07-12T15:10:18.706Z,24.75
2018-07-12T15:12:47.950Z,24.45
2018-07-12T15:15:17.194Z,25.17
2018-07-12T15:17:46.410Z,24.78
2018-07-12T15:20:15.650Z,24.81
2018-07-12T15:22:44.947Z,24.80
2018-07-12T15:25:14.217Z,24.65
2018-07-12T15:27:43.496Z,24.87
2018-07-12T15:30:12.775Z,24.94
2018-07-12T15:32:42.019Z,24.73
2018-07-12T15:35:11.682Z,24.52
2018-07-12T15:37:41.039Z,24.43
2018-07-12T15:40:11.278Z,24.52
2018-07-12T15:42:40.532Z,24.23
2018-07-12T15:45:09.830Z,24.15
2018-07-12T15:47:39.088Z,24.04
2018-07-12T15:50:08.365Z,24.07
2018-07-12T15:52:37.744Z,23.86
2018-07-12T15:55:07.415Z,24.06
2018-07-12T15:57:36.662Z,24.73
2018-07-12T16:00:06.446Z,24.27
2018-07-12T16:02:35.721Z,24.14
2018-07-12T16:05:05.014Z,24.85
2018-07-12T16:07:34.424Z,24.80
2018-07-12T16:10:03.774Z,24.38
2018-07-12T16:12:33.067Z,25.00
2018-07-12T16:15:02.333Z,25.25
2018-07-12T16:17:31.673Z,24.79
2018-07-12T16:20:00.977Z,24.35
2018-07-12T16:22:30.344Z,24.71
2018-07-12T16:24:59.654Z,24.55
2018-07-12T16:27:28.921Z,24.02
2018-07-12T16:29:58.251Z,23.64
2018-07-12T16:32:27.610Z,23.53
2018-07-12T16:34:57.088Z,23.86
2018-07-12T16:37:26.386Z,23.81
2018-07-12T16:39:55.668Z,23.62
2018-07-12T16:42:24.735Z,23.65
2018-07-12T16:44:53.977Z,23.61
2018-07-12T16:47:23.235Z,23.48
2018-07-12T16:49:52.518Z,23.88
2018-07-12T16:52:21.763Z,23.99
2018-07-12T16:54:51.067Z,25.16
2018-07-12T16:57:20.460Z,25.80
2018-07-12T17:02:33.337Z,27.60
2018-07-12T17:05:08.229Z,27.63
2018-07-12T17:07:51.196Z,27.25
2018-07-12T17:10:57.221Z,27.87
2018-07-12T17:20:53.301Z,28.71
2018-07-12T17:23:31.423Z,27.50
2018-07-12T17:26:01.153Z,26.12
2018-07-12T17:28:50.198Z,25.53
2018-07-12T17:31:39.167Z,26.09
2018-07-12T17:34:10.227Z,25.46
2018-07-12T17:36:42.582Z,24.98
2018-07-12T17:40:03.605Z,24.47
2018-07-12T17:43:19.987Z,24.55
2018-07-12T17:45:49.624Z,24.18
2018-07-12T17:48:19.011Z,23.96
2018-07-12T17:50:48.449Z,23.62
2018-07-12T17:53:17.882Z,23.47
2018-07-12T17:55:47.691Z,23.45
2018-07-12T17:58:17.884Z,23.43
2018-07-12T18:00:47.335Z,23.38
2018-07-12T18:03:16.723Z,23.29
2018-07-12T18:05:46.144Z,23.16
2018-07-12T18:08:15.574Z,23.06
2018-07-12T18:10:51.187Z,23.22
2018-07-12T18:13:20.816Z,23.39
2018-07-12T18:15:50.163Z,24.02
2018-07-12T18:18:19.802Z,23.71
2018-07-12T18:20:49.283Z,24.19
2018-07-12T18:23:21.123Z,24.17
2018-07-12T18:25:51.557Z,23.52
2018-07-12T18:28:21.027Z,23.27
2018-07-12T18:30:50.349Z,23.08
2018-07-12T18:33:19.470Z,23.09
2018-07-12T18:35:48.923Z,22.91
2018-07-12T18:38:18.400Z,22.60
2018-07-12T18:40:47.785Z,22.43
2018-07-12T18:43:17.111Z,22.35
2018-07-12T18:45:46.476Z,22.22
2018-07-12T18:48:15.948Z,22.09
2018-07-12T18:50:45.404Z,21.92
2018-07-12T18:53:14.810Z,21.83
2018-07-12T18:55:44.256Z,21.73
2018-07-12T18:58:13.599Z,21.54
2018-07-12T19:00:43.154Z,21.53
2018-07-12T19:03:12.594Z,21.46
2018-07-12T19:05:41.917Z,21.32
2018-07-12T19:08:11.414Z,21.20
2018-07-12T19:10:40.911Z,21.19
2018-07-12T19:13:10.398Z,21.11
2018-07-12T19:15:39.778Z,20.97
2018-07-12T19:18:09.191Z,20.87
2018-07-12T19:20:38.887Z,20.76
2018-07-12T19:23:08.012Z,20.61
2018-07-12T19:25:37.375Z,20.52
2018-07-12T19:28:06.763Z,20.54
2018-07-12T19:30:36.216Z,20.41
2018-07-12T19:33:05.547Z,20.27
2018-07-12T19:35:35.035Z,20.17
2018-07-12T19:38:04.087Z,20.05
2018-07-12T19:40:33.475Z,19.72
2018-07-12T19:43:02.872Z,19.63
2018-07-12T19:45:32.247Z,19.50
2018-07-12T19:48:01.631Z,19.39
2018-07-12T19:50:31.077Z,19.26
2018-07-12T19:53:00.712Z,19.15
2018-07-12T19:55:30.371Z,19.05
2018-07-12T19:58:00.000Z,18.96
2018-07-12T20:00:30.467Z,18.90
2018-07-12T20:06:47.992Z,18.78
2018-07-12T20:09:22.770Z,18.63
2018-07-12T20:11:56.050Z,18.57
2018-07-12T20:17:55.351Z,18.41
2018-07-12T20:20:31.880Z,18.29
2018-07-12T20:23:01.722Z,18.25
2018-07-12T20:25:30.861Z,18.16
2018-07-12T20:28:00.271Z,18.05
2018-07-12T20:30:29.607Z,18.00
2018-07-12T20:32:59.118Z,18.00
2018-07-12T20:35:28.590Z,17.98
2018-07-12T20:37:57.928Z,17.91
2018-07-12T20:40:27.418Z,17.77
2018-07-12T20:42:56.728Z,17.65
2018-07-12T20:45:26.001Z,17.60
2018-07-12T20:47:55.306Z,17.63
2018-07-12T20:50:24.720Z,17.66
2018-07-12T20:52:54.014Z,17.52
2018-07-12T20:55:23.359Z,17.48
2018-07-12T20:57:52.704Z,17.42
2018-07-12T21:00:22.313Z,17.31
2018-07-12T21:02:51.589Z,17.32
2018-07-12T21:05:20.897Z,17.34
2018-07-12T21:07:50.208Z,17.37
2018-07-12T21:10:19.562Z,17.29
2018-07-12T21:12:48.897Z,17.23
2018-07-12T21:15:18.317Z,17.14
2018-07-12T21:17:47.603Z,17.16
2018-07-12T21:20:16.942Z,17.13
2018-07-12T21:22:46.200Z,17.01
2018-07-12T21:25:15.563Z,16.95
2018-07-12T21:27:45.099Z,16.92
2018-07-12T21:30:14.476Z,16.90
2018-07-12T21:32:43.972Z,16.90
2018-07-12T21:35:13.368Z,16.86
2018-07-12T21:37:42.792Z,16.83
2018-07-12T21:40:12.006Z,16.80
2018-07-12T21:42:41.075Z,16.80
2018-07-12T21:45:10.441Z,16.80
2018-07-12T21:47:39.736Z,16.79
2018-07-12T21:50:08.845Z,16.75
2018-07-12T21:52:38.194Z,16.68
2018-07-12T21:55:07.529Z,16.61
2018-07-12T21:57:36.865Z,16.45
2018-07-12T22:00:08.958Z,16.49
2018-07-12T22:02:38.326Z,16.51
2018-07-12T22:05:07.628Z,16.45
2018-07-12T22:08:14.907Z,16.41
2018-07-12T22:10:45.070Z,16.33
2018-07-12T22:13:14.991Z,16.26
2018-07-12T22:15:44.346Z,16.26
2018-07-12T22:18:13.630Z,16.18
2018-07-12T22:20:42.911Z,16.12
2018-07-12T22:23:11.946Z,16.04
2018-07-12T22:25:41.203Z,15.98
2018-07-12T22:28:10.449Z,15.95
2018-07-12T22:30:39.845Z,15.91
2018-07-12T22:33:09.119Z,15.93
2018-07-12T22:35:38.330Z,15.91
2018-07-12T22:38:07.550Z,15.82
2018-07-12T22:40:36.758Z,15.74
2018-07-12T22:43:06.174Z,15.68
2018-07-12T22:45:35.440Z,15.64
2018-07-12T22:48:04.705Z,15.70
2018-07-12T22:50:33.911Z,15.72
2018-07-12T22:53:03.169Z,15.62
2018-07-12T22:55:32.397Z,15.68
2018-07-12T22:58:01.650Z,15.64
2018-07-12T23:00:30.887Z,15.58
2018-07-12T23:03:00.141Z,15.69
2018-07-12T23:05:29.367Z,15.67
2018-07-12T23:07:58.606Z,15.63
2018-07-12T23:10:27.856Z,15.56
2018-07-12T23:12:57.129Z,15.50
2018-07-12T23:15:26.387Z,15.43
2018-07-12T23:17:55.616Z,15.42
2018-07-12T23:20:24.886Z,15.48
2018-07-12T23:22:54.130Z,15.50
2018-07-12T23:25:23.443Z,15.47
2018-07-12T23:27:52.619Z,15.43
2018-07-12T23:30:21.831Z,15.51
2018-07-12T23:32:51.070Z,15.39
2018-07-12T23:35:20.300Z,15.38
2018-07-12T23:37:49.543Z,15.21
2018-07-12T23:40:18.759Z,15.17
2018-07-12T23:42:48.006Z,15.19
2018-07-12T23:45:17.243Z,15.14
2018-07-12T23:47:46.455Z,15.09
2018-07-12T23:50:15.677Z,15.09
2018-07-12T23:52:44.926Z,14.96
2018-07-12T23:55:14.190Z,14.94
2018-07-12T23:57:43.458Z,14.94
